sensor_id;sensor_type;location;lat;lon;timestamp;P1;durP1;ratioP1;P2;durP2;ratioP2
13185;SDS011;6658;53.080;7.428;2022-11-04T00:01:31;4.90;;;4.10;;
13185;SDS011;6658;53.080;7.428;2022-11-04T00:03:57;5.87;;;3.90;;
13185;SDS011;6658;53.080;7.428;2022-11-04T00:06:24;3.97;;;3.67;;
13185;SDS011;6658;53.080;7.428;2022-11-04T00:08:50;4.33;;;3.93;;
13185;SDS011;6658;53.080;7.428;2022-11-04T00:11:17;4.73;;;4.30;;
13185;SDS011;6658;53.080;7.428;2022-11-04T00:14:01;4.20;;;3.80;;
13185;SDS011;6658;53.080;7.428;2022-11-04T00:16:27;4.27;;;3.87;;
13185;SDS011;6658;53.080;7.428;2022-11-04T00:19:12;4.50;;;3.83;;
13185;SDS011;6658;53.080;7.428;2022-11-04T00:21:37;4.63;;;4.00;;
13185;SDS011;6658;53.080;7.428;2022-11-04T00:24:22;5.03;;;4.53;;
13185;SDS011;6658;53.080;7.428;2022-11-04T00:27:07;4.70;;;4.30;;
13185;SDS011;6658;53.080;7.428;2022-11-04T00:29:55;4.93;;;4.43;;
13185;SDS011;6658;53.080;7.428;2022-11-04T00:32:20;5.90;;;5.30;;
13185;SDS011;6658;53.080;7.428;2022-11-04T00:35:05;5.97;;;4.87;;
13185;SDS011;6658;53.080;7.428;2022-11-04T00:37:31;6.13;;;5.53;;
13185;SDS011;6658;53.080;7.428;2022-11-04T00:39:59;5.73;;;5.00;;
13185;SDS011;6658;53.080;7.428;2022-11-04T00:42:25;5.17;;;4.70;;
13185;SDS011;6658;53.080;7.428;2022-11-04T00:44:51;5.27;;;4.77;;
13185;SDS011;6658;53.080;7.428;2022-11-04T00:47:16;6.60;;;5.33;;
13185;SDS011;6658;53.080;7.428;2022-11-04T00:49:42;5.73;;;5.20;;
13185;SDS011;6658;53.080;7.428;2022-11-04T00:52:07;8.73;;;5.23;;
13185;SDS011;6658;53.080;7.428;2022-11-04T00:54:33;6.17;;;5.67;;
13185;SDS011;6658;53.080;7.428;2022-11-04T00:56:59;6.20;;;5.60;;
13185;SDS011;6658;53.080;7.428;2022-11-04T00:59:24;5.83;;;5.33;;
13185;SDS011;6658;53.080;7.428;2022-11-04T01:01:50;5.53;;;5.03;;
13185;SDS011;6658;53.080;7.428;2022-11-04T01:04:15;5.60;;;5.10;;
13185;SDS011;6658;53.080;7.428;2022-11-04T01:06:41;5.17;;;4.77;;
13185;SDS011;6658;53.080;7.428;2022-11-04T01:09:07;5.70;;;4.43;;
13185;SDS011;6658;53.080;7.428;2022-11-04T01:11:35;4.47;;;4.17;;
13185;SDS011;6658;53.080;7.428;2022-11-04T01:14:01;4.77;;;3.20;;
13185;SDS011;6658;53.080;7.428;2022-11-04T01:16:27;3.70;;;3.40;;
13185;SDS011;6658;53.080;7.428;2022-11-04T01:18:53;4.17;;;3.10;;
13185;SDS011;6658;53.080;7.428;2022-11-04T01:21:19;3.70;;;2.43;;
13185;SDS011;6658;53.080;7.428;2022-11-04T01:23:45;2.40;;;2.30;;
13185;SDS011;6658;53.080;7.428;2022-11-04T01:26:14;2.50;;;2.30;;
13185;SDS011;6658;53.080;7.428;2022-11-04T01:28:43;2.00;;;1.70;;
13185;SDS011;6658;53.080;7.428;2022-11-04T01:31:10;1.40;;;1.30;;
13185;SDS011;6658;53.080;7.428;2022-11-04T01:33:43;1.57;;;1.20;;
13185;SDS011;6658;53.080;7.428;2022-11-04T01:36:09;1.10;;;1.00;;
13185;SDS011;6658;53.080;7.428;2022-11-04T01:38:35;1.30;;;0.90;;
13185;SDS011;6658;53.080;7.428;2022-11-04T01:41:01;1.17;;;1.07;;
13185;SDS011;6658;53.080;7.428;2022-11-04T01:46:49;0.60;;;0.60;;
13185;SDS011;6658;53.080;7.428;2022-11-04T01:49:31;0.70;;;0.70;;
13185;SDS011;6658;53.080;7.428;2022-11-04T01:52:04;1.60;;;0.90;;
13185;SDS011;6658;53.080;7.428;2022-11-04T01:54:34;0.60;;;0.60;;
13185;SDS011;6658;53.080;7.428;2022-11-04T01:57:01;1.63;;;0.97;;
13185;SDS011;6658;53.080;7.428;2022-11-04T01:59:32;0.80;;;0.80;;
13185;SDS011;6658;53.080;7.428;2022-11-04T02:02:01;1.50;;;0.60;;
13185;SDS011;6658;53.080;7.428;2022-11-04T02:04:27;0.60;;;0.60;;
13185;SDS011;6658;53.080;7.428;2022-11-04T02:06:58;2.10;;;0.60;;
13185;SDS011;6658;53.080;7.428;2022-11-04T02:09:26;0.77;;;0.60;;
13185;SDS011;6658;53.080;7.428;2022-11-04T02:11:56;0.40;;;0.40;;
13185;SDS011;6658;53.080;7.428;2022-11-04T02:14:40;2.13;;;1.03;;
13185;SDS011;6658;53.080;7.428;2022-11-04T02:20:05;0.93;;;0.50;;
13185;SDS011;6658;53.080;7.428;2022-11-04T02:25:30;0.53;;;0.40;;
13185;SDS011;6658;53.080;7.428;2022-11-04T02:30:30;0.30;;;0.30;;
13185;SDS011;6658;53.080;7.428;2022-11-04T02:33:18;0.43;;;0.37;;
13185;SDS011;6658;53.080;7.428;2022-11-04T02:39:24;0.53;;;0.40;;
13185;SDS011;6658;53.080;7.428;2022-11-04T02:44:15;1.17;;;0.60;;
13185;SDS011;6658;53.080;7.428;2022-11-04T02:46:50;0.70;;;0.47;;
13185;SDS011;6658;53.080;7.428;2022-11-04T02:52:01;1.83;;;0.60;;
13185;SDS011;6658;53.080;7.428;2022-11-04T02:57:21;0.80;;;0.60;;
13185;SDS011;6658;53.080;7.428;2022-11-04T02:59:53;3.27;;;0.70;;
13185;SDS011;6658;53.080;7.428;2022-11-04T03:02:25;1.00;;;0.70;;
13185;SDS011;6658;53.080;7.428;2022-11-04T03:05:20;1.63;;;0.83;;
13185;SDS011;6658;53.080;7.428;2022-11-04T03:07:52;2.10;;;0.87;;
13185;SDS011;6658;53.080;7.428;2022-11-04T03:10:23;1.57;;;0.87;;
13185;SDS011;6658;53.080;7.428;2022-11-04T03:12:56;1.80;;;0.60;;
13185;SDS011;6658;53.080;7.428;2022-11-04T03:15:33;0.90;;;0.80;;
13185;SDS011;6658;53.080;7.428;2022-11-04T03:20:29;1.23;;;0.50;;
13185;SDS011;6658;53.080;7.428;2022-11-04T03:22:55;0.90;;;0.60;;
13185;SDS011;6658;53.080;7.428;2022-11-04T03:25:35;2.37;;;0.73;;
13185;SDS011;6658;53.080;7.428;2022-11-04T03:30:41;1.33;;;0.70;;
13185;SDS011;6658;53.080;7.428;2022-11-04T03:33:16;0.53;;;0.50;;
13185;SDS011;6658;53.080;7.428;2022-11-04T03:35:49;0.47;;;0.47;;
13185;SDS011;6658;53.080;7.428;2022-11-04T03:38:15;0.77;;;0.30;;
13185;SDS011;6658;53.080;7.428;2022-11-04T03:40:40;0.30;;;0.30;;
13185;SDS011;6658;53.080;7.428;2022-11-04T03:43:08;0.60;;;0.40;;
13185;SDS011;6658;53.080;7.428;2022-11-04T03:45:38;0.43;;;0.43;;
13185;SDS011;6658;53.080;7.428;2022-11-04T03:48:04;0.63;;;0.40;;
13185;SDS011;6658;53.080;7.428;2022-11-04T03:50:32;0.67;;;0.50;;
13185;SDS011;6658;53.080;7.428;2022-11-04T03:53:03;0.70;;;0.50;;
13185;SDS011;6658;53.080;7.428;2022-11-04T03:58:20;1.30;;;0.50;;
13185;SDS011;6658;53.080;7.428;2022-11-04T04:00:51;0.20;;;0.20;;
13185;SDS011;6658;53.080;7.428;2022-11-04T04:03:24;1.60;;;0.40;;
13185;SDS011;6658;53.080;7.428;2022-11-04T04:05:58;0.80;;;0.50;;
13185;SDS011;6658;53.080;7.428;2022-11-04T04:14:27;0.60;;;0.40;;
13185;SDS011;6658;53.080;7.428;2022-11-04T04:17:16;1.33;;;0.63;;
13185;SDS011;6658;53.080;7.428;2022-11-04T04:19:58;0.30;;;0.30;;
13185;SDS011;6658;53.080;7.428;2022-11-04T04:22:33;1.53;;;0.90;;
13185;SDS011;6658;53.080;7.428;2022-11-04T04:25:05;1.47;;;1.00;;
13185;SDS011;6658;53.080;7.428;2022-11-04T04:27:51;1.10;;;1.00;;
13185;SDS011;6658;53.080;7.428;2022-11-04T04:30:19;1.10;;;1.00;;
13185;SDS011;6658;53.080;7.428;2022-11-04T04:32:50;1.67;;;1.20;;
13185;SDS011;6658;53.080;7.428;2022-11-04T04:35:25;2.07;;;1.50;;
13185;SDS011;6658;53.080;7.428;2022-11-04T04:38:07;2.37;;;1.57;;
13185;SDS011;6658;53.080;7.428;2022-11-04T04:43:58;3.27;;;1.53;;
13185;SDS011;6658;53.080;7.428;2022-11-04T04:46:43;1.40;;;1.30;;
13185;SDS011;6658;53.080;7.428;2022-11-04T04:49:11;2.23;;;1.40;;
13185;SDS011;6658;53.080;7.428;2022-11-04T04:51:42;0.87;;;0.87;;
13185;SDS011;6658;53.080;7.428;2022-11-04T04:54:10;1.27;;;0.90;;
13185;SDS011;6658;53.080;7.428;2022-11-04T04:56:36;0.60;;;0.50;;
13185;SDS011;6658;53.080;7.428;2022-11-04T04:59:01;0.60;;;0.60;;
13185;SDS011;6658;53.080;7.428;2022-11-04T05:01:27;0.60;;;0.50;;
13185;SDS011;6658;53.080;7.428;2022-11-04T05:03:53;0.50;;;0.50;;
13185;SDS011;6658;53.080;7.428;2022-11-04T05:06:19;0.60;;;0.40;;
13185;SDS011;6658;53.080;7.428;2022-11-04T05:08:44;0.40;;;0.20;;
13185;SDS011;6658;53.080;7.428;2022-11-04T05:11:10;0.63;;;0.30;;
13185;SDS011;6658;53.080;7.428;2022-11-04T05:13:36;1.40;;;0.40;;
13185;SDS011;6658;53.080;7.428;2022-11-04T05:16:02;0.73;;;0.20;;
13185;SDS011;6658;53.080;7.428;2022-11-04T05:18:33;1.60;;;0.47;;
13185;SDS011;6658;53.080;7.428;2022-11-04T05:21:06;1.73;;;0.30;;
13185;SDS011;6658;53.080;7.428;2022-11-04T05:23:34;0.40;;;0.40;;
13185;SDS011;6658;53.080;7.428;2022-11-04T05:26:00;2.10;;;0.30;;
13185;SDS011;6658;53.080;7.428;2022-11-04T05:28:25;0.30;;;0.30;;
13185;SDS011;6658;53.080;7.428;2022-11-04T05:30:51;0.20;;;0.20;;
13185;SDS011;6658;53.080;7.428;2022-11-04T05:33:17;0.37;;;0.10;;
13185;SDS011;6658;53.080;7.428;2022-11-04T05:35:43;0.20;;;0.20;;
13185;SDS011;6658;53.080;7.428;2022-11-04T05:38:08;0.20;;;0.20;;
13185;SDS011;6658;53.080;7.428;2022-11-04T05:40:34;0.20;;;0.20;;
13185;SDS011;6658;53.080;7.428;2022-11-04T05:43:00;0.30;;;0.20;;
13185;SDS011;6658;53.080;7.428;2022-11-04T05:45:26;1.67;;;0.30;;
13185;SDS011;6658;53.080;7.428;2022-11-04T05:47:56;0.83;;;0.20;;
13185;SDS011;6658;53.080;7.428;2022-11-04T05:50:26;0.60;;;0.20;;
13185;SDS011;6658;53.080;7.428;2022-11-04T05:52:52;0.30;;;0.30;;
13185;SDS011;6658;53.080;7.428;2022-11-04T05:55:20;0.77;;;0.20;;
13185;SDS011;6658;53.080;7.428;2022-11-04T05:57:45;0.73;;;0.33;;
13185;SDS011;6658;53.080;7.428;2022-11-04T06:00:11;0.93;;;0.37;;
13185;SDS011;6658;53.080;7.428;2022-11-04T06:02:37;1.33;;;0.30;;
13185;SDS011;6658;53.080;7.428;2022-11-04T06:05:03;0.57;;;0.20;;
13185;SDS011;6658;53.080;7.428;2022-11-04T06:07:29;0.30;;;0.23;;
13185;SDS011;6658;53.080;7.428;2022-11-04T06:09:55;0.40;;;0.20;;
13185;SDS011;6658;53.080;7.428;2022-11-04T06:12:20;0.40;;;0.20;;
13185;SDS011;6658;53.080;7.428;2022-11-04T06:14:46;0.13;;;0.13;;
13185;SDS011;6658;53.080;7.428;2022-11-04T06:17:15;0.27;;;0.23;;
13185;SDS011;6658;53.080;7.428;2022-11-04T06:19:42;0.70;;;0.40;;
13185;SDS011;6658;53.080;7.428;2022-11-04T06:22:12;0.30;;;0.30;;
13185;SDS011;6658;53.080;7.428;2022-11-04T06:24:38;0.70;;;0.40;;
13185;SDS011;6658;53.080;7.428;2022-11-04T06:27:05;0.30;;;0.20;;
13185;SDS011;6658;53.080;7.428;2022-11-04T06:29:31;0.30;;;0.30;;
13185;SDS011;6658;53.080;7.428;2022-11-04T06:31:56;0.50;;;0.40;;
13185;SDS011;6658;53.080;7.428;2022-11-04T06:34:22;0.33;;;0.30;;
13185;SDS011;6658;53.080;7.428;2022-11-04T06:36:48;0.47;;;0.20;;
13185;SDS011;6658;53.080;7.428;2022-11-04T06:39:14;1.43;;;0.30;;
13185;SDS011;6658;53.080;7.428;2022-11-04T06:41:40;0.20;;;0.10;;
13185;SDS011;6658;53.080;7.428;2022-11-04T06:44:06;0.47;;;0.40;;
13185;SDS011;6658;53.080;7.428;2022-11-04T06:46:38;0.47;;;0.40;;
13185;SDS011;6658;53.080;7.428;2022-11-04T06:49:08;1.60;;;0.40;;
13185;SDS011;6658;53.080;7.428;2022-11-04T06:51:38;0.30;;;0.30;;
13185;SDS011;6658;53.080;7.428;2022-11-04T06:54:04;1.60;;;0.43;;
13185;SDS011;6658;53.080;7.428;2022-11-04T06:56:29;0.97;;;0.37;;
13185;SDS011;6658;53.080;7.428;2022-11-04T06:58:55;1.60;;;0.43;;
13185;SDS011;6658;53.080;7.428;2022-11-04T07:01:22;0.40;;;0.33;;
13185;SDS011;6658;53.080;7.428;2022-11-04T07:03:54;0.23;;;0.23;;
13185;SDS011;6658;53.080;7.428;2022-11-04T07:06:22;0.40;;;0.40;;
13185;SDS011;6658;53.080;7.428;2022-11-04T07:08:49;0.70;;;0.40;;
13185;SDS011;6658;53.080;7.428;2022-11-04T07:11:17;0.93;;;0.53;;
13185;SDS011;6658;53.080;7.428;2022-11-04T07:13:45;0.40;;;0.40;;
13185;SDS011;6658;53.080;7.428;2022-11-04T07:16:11;1.70;;;0.50;;
13185;SDS011;6658;53.080;7.428;2022-11-04T07:18:37;0.50;;;0.30;;
13185;SDS011;6658;53.080;7.428;2022-11-04T07:21:03;0.60;;;0.60;;
13185;SDS011;6658;53.080;7.428;2022-11-04T07:23:30;1.07;;;0.50;;
13185;SDS011;6658;53.080;7.428;2022-11-04T07:25:59;0.77;;;0.50;;
13185;SDS011;6658;53.080;7.428;2022-11-04T07:28:26;1.57;;;0.40;;
13185;SDS011;6658;53.080;7.428;2022-11-04T07:30:54;0.60;;;0.30;;
13185;SDS011;6658;53.080;7.428;2022-11-04T07:33:21;0.50;;;0.47;;
13185;SDS011;6658;53.080;7.428;2022-11-04T07:35:46;2.10;;;0.60;;
13185;SDS011;6658;53.080;7.428;2022-11-04T07:38:12;0.50;;;0.50;;
13185;SDS011;6658;53.080;7.428;2022-11-04T07:40:38;0.80;;;0.50;;
13185;SDS011;6658;53.080;7.428;2022-11-04T07:43:03;0.60;;;0.60;;
13185;SDS011;6658;53.080;7.428;2022-11-04T07:45:29;1.13;;;0.60;;
13185;SDS011;6658;53.080;7.428;2022-11-04T07:47:54;1.23;;;0.63;;
13185;SDS011;6658;53.080;7.428;2022-11-04T07:50:21;1.10;;;0.60;;
13185;SDS011;6658;53.080;7.428;2022-11-04T07:52:47;1.17;;;1.00;;
13185;SDS011;6658;53.080;7.428;2022-11-04T07:55:14;2.67;;;1.10;;
13185;SDS011;6658;53.080;7.428;2022-11-04T07:57:42;0.83;;;0.83;;
13185;SDS011;6658;53.080;7.428;2022-11-04T08:00:12;1.53;;;0.90;;
13185;SDS011;6658;53.080;7.428;2022-11-04T08:02:39;1.07;;;0.90;;
13185;SDS011;6658;53.080;7.428;2022-11-04T08:05:06;1.17;;;0.90;;
13185;SDS011;6658;53.080;7.428;2022-11-04T08:07:32;2.67;;;1.10;;
13185;SDS011;6658;53.080;7.428;2022-11-04T08:09:58;1.27;;;0.80;;
13185;SDS011;6658;53.080;7.428;2022-11-04T08:12:23;0.87;;;0.70;;
13185;SDS011;6658;53.080;7.428;2022-11-04T08:14:49;1.43;;;1.03;;
13185;SDS011;6658;53.080;7.428;2022-11-04T08:17:15;0.97;;;0.87;;
13185;SDS011;6658;53.080;7.428;2022-11-04T08:19:41;1.20;;;0.90;;
13185;SDS011;6658;53.080;7.428;2022-11-04T08:22:07;1.27;;;0.90;;
13185;SDS011;6658;53.080;7.428;2022-11-04T08:24:33;0.90;;;0.70;;
13185;SDS011;6658;53.080;7.428;2022-11-04T08:26:59;2.30;;;0.80;;
13185;SDS011;6658;53.080;7.428;2022-11-04T08:29:25;1.53;;;0.77;;
13185;SDS011;6658;53.080;7.428;2022-11-04T08:31:51;1.33;;;0.80;;
13185;SDS011;6658;53.080;7.428;2022-11-04T08:34:17;1.13;;;0.80;;
13185;SDS011;6658;53.080;7.428;2022-11-04T08:36:43;0.90;;;0.80;;
13185;SDS011;6658;53.080;7.428;2022-11-04T08:39:10;2.00;;;0.80;;
13185;SDS011;6658;53.080;7.428;2022-11-04T08:41:37;1.10;;;0.70;;
13185;SDS011;6658;53.080;7.428;2022-11-04T08:44:06;0.93;;;0.60;;
13185;SDS011;6658;53.080;7.428;2022-11-04T08:46:33;1.50;;;0.63;;
13185;SDS011;6658;53.080;7.428;2022-11-04T08:49:01;1.27;;;0.60;;
13185;SDS011;6658;53.080;7.428;2022-11-04T08:51:28;2.87;;;0.97;;
13185;SDS011;6658;53.080;7.428;2022-11-04T08:53:55;1.00;;;0.90;;
13185;SDS011;6658;53.080;7.428;2022-11-04T08:56:22;0.90;;;0.70;;
13185;SDS011;6658;53.080;7.428;2022-11-04T08:58:50;1.70;;;1.37;;
13185;SDS011;6658;53.080;7.428;2022-11-04T09:01:17;2.00;;;1.20;;
13185;SDS011;6658;53.080;7.428;2022-11-04T09:03:45;1.53;;;1.00;;
13185;SDS011;6658;53.080;7.428;2022-11-04T09:06:13;1.47;;;1.00;;
13185;SDS011;6658;53.080;7.428;2022-11-04T09:08:40;1.90;;;1.10;;
13185;SDS011;6658;53.080;7.428;2022-11-04T09:11:08;1.60;;;1.13;;
13185;SDS011;6658;53.080;7.428;2022-11-04T09:13:35;1.60;;;1.10;;
13185;SDS011;6658;53.080;7.428;2022-11-04T09:16:02;1.23;;;0.90;;
13185;SDS011;6658;53.080;7.428;2022-11-04T09:18:29;1.53;;;1.30;;
13185;SDS011;6658;53.080;7.428;2022-11-04T09:20:57;1.03;;;0.90;;
13185;SDS011;6658;53.080;7.428;2022-11-04T09:23:24;1.27;;;1.17;;
13185;SDS011;6658;53.080;7.428;2022-11-04T09:25:50;1.33;;;1.23;;
13185;SDS011;6658;53.080;7.428;2022-11-04T09:28:16;1.63;;;1.10;;
13185;SDS011;6658;53.080;7.428;2022-11-04T09:30:41;3.37;;;1.07;;
13185;SDS011;6658;53.080;7.428;2022-11-04T09:33:07;2.03;;;1.13;;
13185;SDS011;6658;53.080;7.428;2022-11-04T09:35:33;1.97;;;1.10;;
13185;SDS011;6658;53.080;7.428;2022-11-04T09:37:58;2.77;;;1.43;;
13185;SDS011;6658;53.080;7.428;2022-11-04T09:40:25;2.40;;;1.20;;
13185;SDS011;6658;53.080;7.428;2022-11-04T09:46:00;1.83;;;1.33;;
13185;SDS011;6658;53.080;7.428;2022-11-04T09:48:29;3.03;;;1.33;;
13185;SDS011;6658;53.080;7.428;2022-11-04T09:50:58;2.00;;;1.20;;
13185;SDS011;6658;53.080;7.428;2022-11-04T09:53:29;4.50;;;1.40;;
13185;SDS011;6658;53.080;7.428;2022-11-04T09:56:27;1.77;;;1.13;;
13185;SDS011;6658;53.080;7.428;2022-11-04T09:59:03;1.63;;;1.13;;
13185;SDS011;6658;53.080;7.428;2022-11-04T10:01:37;1.60;;;1.33;;
13185;SDS011;6658;53.080;7.428;2022-11-04T10:15:14;2.10;;;1.90;;
13185;SDS011;6658;53.080;7.428;2022-11-04T10:18:23;1.10;;;1.00;;
13185;SDS011;6658;53.080;7.428;2022-11-04T10:23:41;1.67;;;1.00;;
13185;SDS011;6658;53.080;7.428;2022-11-04T10:26:28;2.20;;;1.63;;
13185;SDS011;6658;53.080;7.428;2022-11-04T10:29:22;2.63;;;1.37;;
13185;SDS011;6658;53.080;7.428;2022-11-04T10:31:53;1.67;;;1.07;;
13185;SDS011;6658;53.080;7.428;2022-11-04T10:37:26;0.73;;;0.70;;
13185;SDS011;6658;53.080;7.428;2022-11-04T10:39:54;2.10;;;0.83;;
13185;SDS011;6658;53.080;7.428;2022-11-04T10:42:30;0.80;;;0.70;;
13185;SDS011;6658;53.080;7.428;2022-11-04T10:44:56;0.70;;;0.70;;
13185;SDS011;6658;53.080;7.428;2022-11-04T10:52:41;1.30;;;1.10;;
13185;SDS011;6658;53.080;7.428;2022-11-04T10:58:17;0.80;;;0.70;;
13185;SDS011;6658;53.080;7.428;2022-11-04T11:00:47;1.47;;;1.03;;
13185;SDS011;6658;53.080;7.428;2022-11-04T11:03:23;1.20;;;0.73;;
13185;SDS011;6658;53.080;7.428;2022-11-04T11:05:51;1.87;;;1.00;;
13185;SDS011;6658;53.080;7.428;2022-11-04T11:08:28;1.77;;;0.63;;
13185;SDS011;6658;53.080;7.428;2022-11-04T11:10:55;1.23;;;1.00;;
13185;SDS011;6658;53.080;7.428;2022-11-04T11:13:26;1.03;;;0.73;;
13185;SDS011;6658;53.080;7.428;2022-11-04T11:18:35;2.00;;;0.80;;
13185;SDS011;6658;53.080;7.428;2022-11-04T11:21:15;0.80;;;0.60;;
13185;SDS011;6658;53.080;7.428;2022-11-04T11:23:46;2.03;;;0.63;;
13185;SDS011;6658;53.080;7.428;2022-11-04T11:26:14;1.00;;;0.70;;
13185;SDS011;6658;53.080;7.428;2022-11-04T11:28:49;3.03;;;0.70;;
13185;SDS011;6658;53.080;7.428;2022-11-04T11:31:20;1.77;;;1.30;;
13185;SDS011;6658;53.080;7.428;2022-11-04T11:36:32;1.30;;;0.80;;
13185;SDS011;6658;53.080;7.428;2022-11-04T11:41:47;0.67;;;0.67;;
13185;SDS011;6658;53.080;7.428;2022-11-04T11:44:19;1.60;;;0.80;;
13185;SDS011;6658;53.080;7.428;2022-11-04T11:46:52;3.53;;;1.07;;
13185;SDS011;6658;53.080;7.428;2022-11-04T11:49:24;1.40;;;0.77;;
13185;SDS011;6658;53.080;7.428;2022-11-04T11:51:54;2.10;;;1.10;;
13185;SDS011;6658;53.080;7.428;2022-11-04T11:54:40;2.83;;;1.03;;
13185;SDS011;6658;53.080;7.428;2022-11-04T11:57:11;1.73;;;1.20;;
13185;SDS011;6658;53.080;7.428;2022-11-04T11:59:59;1.70;;;0.80;;
13185;SDS011;6658;53.080;7.428;2022-11-04T12:05:07;1.67;;;1.00;;
13185;SDS011;6658;53.080;7.428;2022-11-04T12:21:30;2.97;;;0.90;;
13185;SDS011;6658;53.080;7.428;2022-11-04T12:26:50;1.17;;;0.83;;
13185;SDS011;6658;53.080;7.428;2022-11-04T12:29:53;1.17;;;0.80;;
13185;SDS011;6658;53.080;7.428;2022-11-04T12:38:02;2.83;;;1.17;;
13185;SDS011;6658;53.080;7.428;2022-11-04T12:40:52;3.70;;;1.03;;
13185;SDS011;6658;53.080;7.428;2022-11-04T12:44:10;10.70;;;1.00;;
13185;SDS011;6658;53.080;7.428;2022-11-04T12:49:35;1.77;;;0.80;;
13185;SDS011;6658;53.080;7.428;2022-11-04T12:52:14;2.93;;;1.10;;
13185;SDS011;6658;53.080;7.428;2022-11-04T12:57:46;2.80;;;1.00;;
13185;SDS011;6658;53.080;7.428;2022-11-04T13:00:22;1.17;;;0.80;;
13185;SDS011;6658;53.080;7.428;2022-11-04T13:03:07;1.50;;;0.90;;
13185;SDS011;6658;53.080;7.428;2022-11-04T13:06:00;2.77;;;0.90;;
13185;SDS011;6658;53.080;7.428;2022-11-04T13:08:48;1.67;;;0.73;;
13185;SDS011;6658;53.080;7.428;2022-11-04T13:13:48;5.87;;;1.30;;
13185;SDS011;6658;53.080;7.428;2022-11-04T13:16:28;1.63;;;0.90;;
13185;SDS011;6658;53.080;7.428;2022-11-04T13:18:58;1.97;;;0.70;;
13185;SDS011;6658;53.080;7.428;2022-11-04T13:21:26;2.10;;;0.90;;
13185;SDS011;6658;53.080;7.428;2022-11-04T13:23:57;2.00;;;0.60;;
13185;SDS011;6658;53.080;7.428;2022-11-04T13:26:28;1.97;;;0.77;;
13185;SDS011;6658;53.080;7.428;2022-11-04T13:29:04;1.90;;;0.80;;
13185;SDS011;6658;53.080;7.428;2022-11-04T13:39:51;2.47;;;1.00;;
13185;SDS011;6658;53.080;7.428;2022-11-04T13:42:28;2.23;;;0.70;;
13185;SDS011;6658;53.080;7.428;2022-11-04T13:45:16;1.57;;;0.70;;
13185;SDS011;6658;53.080;7.428;2022-11-04T13:47:54;3.90;;;0.80;;
13185;SDS011;6658;53.080;7.428;2022-11-04T13:50:40;1.47;;;0.57;;
13185;SDS011;6658;53.080;7.428;2022-11-04T13:53:07;2.63;;;0.70;;
13185;SDS011;6658;53.080;7.428;2022-11-04T13:55:35;2.17;;;0.90;;
13185;SDS011;6658;53.080;7.428;2022-11-04T13:58:14;3.67;;;0.90;;
13185;SDS011;6658;53.080;7.428;2022-11-04T14:01:09;3.23;;;0.73;;
13185;SDS011;6658;53.080;7.428;2022-11-04T14:03:39;2.27;;;0.73;;
13185;SDS011;6658;53.080;7.428;2022-11-04T14:06:16;2.60;;;0.83;;
13185;SDS011;6658;53.080;7.428;2022-11-04T14:09:22;2.50;;;0.87;;
13185;SDS011;6658;53.080;7.428;2022-11-04T14:14:32;1.73;;;0.73;;
13185;SDS011;6658;53.080;7.428;2022-11-04T14:16:58;2.33;;;0.60;;
13185;SDS011;6658;53.080;7.428;2022-11-04T14:22:24;2.93;;;0.97;;
13185;SDS011;6658;53.080;7.428;2022-11-04T14:24:56;3.67;;;1.30;;
13185;SDS011;6658;53.080;7.428;2022-11-04T14:27:29;2.40;;;0.60;;
13185;SDS011;6658;53.080;7.428;2022-11-04T14:30:02;2.33;;;0.80;;
13185;SDS011;6658;53.080;7.428;2022-11-04T14:32:33;1.37;;;0.80;;
13185;SDS011;6658;53.080;7.428;2022-11-04T14:35:03;1.13;;;0.50;;
13185;SDS011;6658;53.080;7.428;2022-11-04T14:37:34;1.70;;;0.70;;
13185;SDS011;6658;53.080;7.428;2022-11-04T14:40:02;3.03;;;0.63;;
13185;SDS011;6658;53.080;7.428;2022-11-04T14:42:49;3.17;;;0.67;;
13185;SDS011;6658;53.080;7.428;2022-11-04T14:45:20;1.63;;;0.63;;
13185;SDS011;6658;53.080;7.428;2022-11-04T14:47:50;2.23;;;0.90;;
13185;SDS011;6658;53.080;7.428;2022-11-04T14:50:24;2.03;;;0.73;;
13185;SDS011;6658;53.080;7.428;2022-11-04T14:52:53;1.77;;;0.63;;
13185;SDS011;6658;53.080;7.428;2022-11-04T14:55:25;1.70;;;0.70;;
13185;SDS011;6658;53.080;7.428;2022-11-04T14:57:54;1.00;;;0.70;;
13185;SDS011;6658;53.080;7.428;2022-11-04T15:05:38;1.83;;;0.90;;
13185;SDS011;6658;53.080;7.428;2022-11-04T15:13:42;2.23;;;1.00;;
13185;SDS011;6658;53.080;7.428;2022-11-04T15:16:28;3.13;;;0.93;;
13185;SDS011;6658;53.080;7.428;2022-11-04T15:18:55;2.23;;;0.80;;
13185;SDS011;6658;53.080;7.428;2022-11-04T15:21:22;1.57;;;0.90;;
13185;SDS011;6658;53.080;7.428;2022-11-04T15:23:50;1.07;;;0.90;;
13185;SDS011;6658;53.080;7.428;2022-11-04T15:28:49;1.23;;;1.00;;
13185;SDS011;6658;53.080;7.428;2022-11-04T15:31:18;2.53;;;1.00;;
13185;SDS011;6658;53.080;7.428;2022-11-04T15:33:47;3.13;;;1.20;;
13185;SDS011;6658;53.080;7.428;2022-11-04T15:36:22;2.13;;;1.10;;
13185;SDS011;6658;53.080;7.428;2022-11-04T15:39:23;1.63;;;0.93;;
13185;SDS011;6658;53.080;7.428;2022-11-04T15:41:45;3.47;;;1.10;;
13185;SDS011;6658;53.080;7.428;2022-11-04T15:44:31;2.33;;;0.73;;
13185;SDS011;6658;53.080;7.428;2022-11-04T15:46:59;3.33;;;1.10;;
13185;SDS011;6658;53.080;7.428;2022-11-04T15:49:28;1.73;;;1.03;;
13185;SDS011;6658;53.080;7.428;2022-11-04T15:51:59;4.03;;;1.13;;
13185;SDS011;6658;53.080;7.428;2022-11-04T15:54:34;1.53;;;0.80;;
13185;SDS011;6658;53.080;7.428;2022-11-04T15:57:03;1.23;;;0.80;;
13185;SDS011;6658;53.080;7.428;2022-11-04T15:59:44;3.40;;;0.93;;
13185;SDS011;6658;53.080;7.428;2022-11-04T16:07:47;2.40;;;1.47;;
13185;SDS011;6658;53.080;7.428;2022-11-04T16:10:32;2.47;;;1.30;;
13185;SDS011;6658;53.080;7.428;2022-11-04T16:15:29;4.17;;;1.17;;
13185;SDS011;6658;53.080;7.428;2022-11-04T16:17:56;2.13;;;1.30;;
13185;SDS011;6658;53.080;7.428;2022-11-04T16:20:22;2.57;;;1.37;;
13185;SDS011;6658;53.080;7.428;2022-11-04T16:22:53;2.77;;;1.57;;
13185;SDS011;6658;53.080;7.428;2022-11-04T16:25:21;2.47;;;1.27;;
13185;SDS011;6658;53.080;7.428;2022-11-04T16:27:48;3.07;;;1.30;;
13185;SDS011;6658;53.080;7.428;2022-11-04T16:32:42;2.53;;;1.50;;
13185;SDS011;6658;53.080;7.428;2022-11-04T16:35:27;2.97;;;1.70;;
13185;SDS011;6658;53.080;7.428;2022-11-04T16:37:53;6.13;;;2.27;;
13185;SDS011;6658;53.080;7.428;2022-11-04T16:40:21;3.40;;;2.17;;
13185;SDS011;6658;53.080;7.428;2022-11-04T16:42:48;2.90;;;2.13;;
13185;SDS011;6658;53.080;7.428;2022-11-04T16:45:29;3.50;;;2.10;;
13185;SDS011;6658;53.080;7.428;2022-11-04T16:47:56;4.33;;;2.13;;
13185;SDS011;6658;53.080;7.428;2022-11-04T16:50:23;4.37;;;2.03;;
13185;SDS011;6658;53.080;7.428;2022-11-04T16:52:49;5.23;;;2.37;;
13185;SDS011;6658;53.080;7.428;2022-11-04T16:55:15;5.30;;;2.73;;
13185;SDS011;6658;53.080;7.428;2022-11-04T16:57:42;6.40;;;2.73;;
13185;SDS011;6658;53.080;7.428;2022-11-04T17:00:27;4.10;;;2.87;;
13185;SDS011;6658;53.080;7.428;2022-11-04T17:02:56;3.93;;;2.77;;
13185;SDS011;6658;53.080;7.428;2022-11-04T17:05:26;5.07;;;2.83;;
13185;SDS011;6658;53.080;7.428;2022-11-04T17:07:51;4.63;;;2.80;;
13185;SDS011;6658;53.080;7.428;2022-11-04T17:10:18;3.97;;;2.77;;
13185;SDS011;6658;53.080;7.428;2022-11-04T17:12:46;7.83;;;2.90;;
13185;SDS011;6658;53.080;7.428;2022-11-04T17:15:12;4.60;;;3.00;;
13185;SDS011;6658;53.080;7.428;2022-11-04T17:17:39;4.13;;;2.23;;
13185;SDS011;6658;53.080;7.428;2022-11-04T17:20:05;2.93;;;2.00;;
13185;SDS011;6658;53.080;7.428;2022-11-04T17:22:32;5.43;;;2.37;;
13185;SDS011;6658;53.080;7.428;2022-11-04T17:25:00;5.40;;;2.50;;
13185;SDS011;6658;53.080;7.428;2022-11-04T17:27:26;3.80;;;2.43;;
13185;SDS011;6658;53.080;7.428;2022-11-04T17:29:52;4.40;;;2.93;;
13185;SDS011;6658;53.080;7.428;2022-11-04T17:32:17;5.27;;;3.13;;
13185;SDS011;6658;53.080;7.428;2022-11-04T17:34:44;4.27;;;3.20;;
13185;SDS011;6658;53.080;7.428;2022-11-04T17:37:10;4.00;;;2.97;;
13185;SDS011;6658;53.080;7.428;2022-11-04T17:39:37;5.23;;;3.30;;
13185;SDS011;6658;53.080;7.428;2022-11-04T17:42:03;5.90;;;3.27;;
13185;SDS011;6658;53.080;7.428;2022-11-04T17:44:47;5.20;;;3.47;;
13185;SDS011;6658;53.080;7.428;2022-11-04T17:47:13;6.40;;;3.30;;
13185;SDS011;6658;53.080;7.428;2022-11-04T17:49:39;6.93;;;3.63;;